createdAt,value
2023-04-28T00:02:02.638Z,4.78
2023-04-28T00:04:30.232Z,5.55
2023-04-28T00:06:59.011Z,4.80
2023-04-28T00:09:26.291Z,5.50
2023-04-28T00:11:53.601Z,4.97
2023-04-28T00:14:20.958Z,5.13
2023-04-28T00:16:48.424Z,5.30
2023-04-28T00:19:15.864Z,5.40
2023-04-28T00:21:43.164Z,5.78
2023-04-28T00:24:11.836Z,5.25
2023-04-28T00:26:39.170Z,5.68
2023-04-28T00:29:06.484Z,5.95
2023-04-28T00:31:35.228Z,6.00
2023-04-28T00:34:02.612Z,6.75
2023-04-28T00:36:32.877Z,6.32
2023-04-28T00:39:00.255Z,5.70
2023-04-28T00:41:28.956Z,6.35
2023-04-28T00:43:56.855Z,6.57
2023-04-28T00:46:26.700Z,6.60
2023-04-28T00:48:54.122Z,6.28
2023-04-28T00:51:21.473Z,6.03
2023-04-28T00:53:49.044Z,6.18
2023-04-28T00:56:16.509Z,6.57
2023-04-28T00:58:45.308Z,6.53
2023-04-28T01:01:12.633Z,7.00
2023-04-28T01:03:40.711Z,6.75
2023-04-28T01:06:08.969Z,7.28
2023-04-28T01:08:37.012Z,7.05
2023-04-28T01:11:04.323Z,7.68
2023-04-28T01:13:31.658Z,7.75
2023-04-28T01:16:00.432Z,7.88
2023-04-28T01:18:28.001Z,7.53
2023-04-28T01:20:56.080Z,8.88
2023-04-28T01:23:23.384Z,7.80
2023-04-28T01:25:52.081Z,8.00
2023-04-28T01:28:19.367Z,7.63
2023-04-28T01:30:46.652Z,7.75
2023-04-28T01:33:13.988Z,8.75
2023-04-28T01:35:41.295Z,8.55
2023-04-28T01:38:08.565Z,9.07
2023-04-28T01:40:36.212Z,8.93
2023-04-28T01:43:04.846Z,8.93
2023-04-28T01:45:32.180Z,8.85
2023-04-28T01:47:59.552Z,9.90
2023-04-28T01:50:26.855Z,9.05
2023-04-28T01:52:54.135Z,9.18
2023-04-28T01:55:21.452Z,9.35
2023-04-28T01:57:48.718Z,9.73
2023-04-28T02:00:17.874Z,10.20
2023-04-28T02:02:45.558Z,8.55
2023-04-28T02:05:13.059Z,9.35
2023-04-28T02:07:40.390Z,9.02
2023-04-28T02:10:08.312Z,9.43
2023-04-28T02:12:35.602Z,9.80
2023-04-28T02:15:02.884Z,10.27
2023-04-28T02:17:32.313Z,10.45
2023-04-28T02:19:59.658Z,11.00
2023-04-28T02:22:26.997Z,10.10
2023-04-28T02:24:54.356Z,10.00
2023-04-28T02:27:21.954Z,12.02
2023-04-28T02:29:49.276Z,12.65
2023-04-28T02:32:16.628Z,13.43
2023-04-28T02:34:45.810Z,12.35
2023-04-28T02:37:13.124Z,14.60
2023-04-28T02:39:40.448Z,14.02
2023-04-28T02:42:07.782Z,13.00
2023-04-28T02:44:35.055Z,11.68
2023-04-28T02:47:02.518Z,11.32
2023-04-28T02:49:29.952Z,11.70
2023-04-28T02:51:58.621Z,11.27
2023-04-28T02:54:28.389Z,11.55
2023-04-28T02:56:56.009Z,11.02
2023-04-28T02:59:23.451Z,11.38
2023-04-28T03:01:51.723Z,10.73
2023-04-28T03:04:19.507Z,10.52
2023-04-28T03:06:47.310Z,11.52
2023-04-28T03:09:16.234Z,11.50
2023-04-28T03:11:43.575Z,10.98
2023-04-28T03:14:11.107Z,12.27
2023-04-28T03:16:38.960Z,11.98
2023-04-28T03:19:06.353Z,12.23
2023-04-28T03:21:34.003Z,11.25
2023-04-28T03:24:04.753Z,11.02
2023-04-28T03:26:34.191Z,12.00
2023-04-28T03:29:01.526Z,10.85
2023-04-28T03:31:28.872Z,11.77
2023-04-28T03:33:56.204Z,12.35
2023-04-28T03:36:23.491Z,12.10
2023-04-28T03:38:50.839Z,13.05
2023-04-28T03:41:18.447Z,12.95
2023-04-28T03:43:47.107Z,13.32
2023-04-28T03:46:14.479Z,13.88
2023-04-28T03:48:41.754Z,14.85
2023-04-28T03:51:09.073Z,14.73
2023-04-28T03:53:36.357Z,15.05
2023-04-28T03:56:03.665Z,15.32
2023-04-28T03:58:31.030Z,16.15
2023-04-28T04:01:00.683Z,17.95
2023-04-28T04:03:28.299Z,17.58
2023-04-28T04:05:55.973Z,18.50
2023-04-28T04:08:23.340Z,19.23
2023-04-28T04:10:50.698Z,18.65
2023-04-28T04:13:17.978Z,19.33
2023-04-28T04:15:45.356Z,18.30
2023-04-28T04:18:14.726Z,16.75
2023-04-28T04:20:42.042Z,18.27
2023-04-28T04:23:09.327Z,18.20
2023-04-28T04:25:36.788Z,17.20
2023-04-28T04:28:04.215Z,16.58
2023-04-28T04:30:31.528Z,16.63
2023-04-28T04:32:58.852Z,17.63
2023-04-28T04:35:27.512Z,16.60
2023-04-28T04:37:54.794Z,16.52
2023-04-28T04:40:22.082Z,15.10
2023-04-28T04:42:49.390Z,14.65
2023-04-28T04:45:17.487Z,14.82
2023-04-28T04:47:44.877Z,13.65
2023-04-28T04:50:12.580Z,14.38
2023-04-28T04:52:41.221Z,13.85
2023-04-28T04:55:10.980Z,14.38
2023-04-28T04:57:38.302Z,13.88
2023-04-28T05:00:06.232Z,11.88
2023-04-28T05:02:33.642Z,12.23
2023-04-28T05:05:12.382Z,11.65
2023-04-28T05:07:48.302Z,12.05
2023-04-28T05:10:15.667Z,11.60
2023-04-28T05:12:45.481Z,11.35
2023-04-28T05:15:14.157Z,11.27
2023-04-28T05:17:41.596Z,11.73
2023-04-28T05:20:11.018Z,11.23
2023-04-28T05:22:39.602Z,10.98
2023-04-28T05:25:09.125Z,11.48
2023-04-28T05:27:37.960Z,12.02
2023-04-28T05:30:05.963Z,12.07
2023-04-28T05:32:33.414Z,12.48
2023-04-28T05:35:01.015Z,11.55
2023-04-28T05:37:28.333Z,11.07
2023-04-28T05:39:55.776Z,13.23
2023-04-28T05:42:24.420Z,12.43
2023-04-28T05:44:51.726Z,12.05
2023-04-28T05:47:19.041Z,12.90
2023-04-28T05:49:46.375Z,12.57
2023-04-28T05:52:13.692Z,12.88
2023-04-28T05:54:40.986Z,13.18
2023-04-28T05:57:08.292Z,13.60
2023-04-28T05:59:36.983Z,12.88
2023-04-28T06:02:04.367Z,13.43
2023-04-28T06:04:31.833Z,12.60
2023-04-28T06:06:59.336Z,13.10
2023-04-28T06:09:26.762Z,13.27
2023-04-28T06:11:54.145Z,12.15
2023-04-28T06:14:23.601Z,12.95
2023-04-28T06:16:52.706Z,12.48
2023-04-28T06:19:20.123Z,12.80
2023-04-28T06:21:50.138Z,12.65
2023-04-28T06:24:17.733Z,12.82
2023-04-28T06:26:45.507Z,12.60
2023-04-28T06:29:13.016Z,12.52
2023-04-28T06:31:40.459Z,13.25
2023-04-28T06:34:09.166Z,12.32
2023-04-28T06:36:36.709Z,11.98
2023-04-28T06:39:04.321Z,13.52
2023-04-28T06:41:31.687Z,13.48
2023-04-28T06:43:58.994Z,12.75
2023-04-28T06:46:26.371Z,12.27
2023-04-28T06:48:53.694Z,11.07
2023-04-28T06:51:22.622Z,13.05
2023-04-28T06:53:51.379Z,13.57
2023-04-28T06:56:18.739Z,12.77
2023-04-28T06:58:46.035Z,13.60
2023-04-28T07:01:13.407Z,14.27
2023-04-28T07:03:40.821Z,12.80
2023-04-28T07:06:08.261Z,13.50
2023-04-28T07:08:37.137Z,13.27
2023-04-28T07:11:05.140Z,12.93
2023-04-28T07:13:32.610Z,12.73
2023-04-28T07:16:00.234Z,12.75
2023-04-28T07:18:27.580Z,13.07
2023-04-28T07:20:54.871Z,13.45
2023-04-28T07:23:22.167Z,12.27
2023-04-28T07:25:50.826Z,12.50
2023-04-28T07:28:18.201Z,12.45
2023-04-28T07:30:45.507Z,13.05
2023-04-28T07:33:12.854Z,12.77
2023-04-28T07:35:40.343Z,13.05
2023-04-28T07:38:07.687Z,12.27
2023-04-28T07:40:35.019Z,12.05
2023-04-28T07:43:03.745Z,11.25
2023-04-28T07:45:31.109Z,11.23
2023-04-28T07:47:58.558Z,11.75
2023-04-28T07:50:26.177Z,11.95
2023-04-28T07:52:53.585Z,11.75
2023-04-28T07:55:20.872Z,12.25
2023-04-28T07:57:49.417Z,11.85
2023-04-28T08:00:19.201Z,11.88
2023-04-28T08:02:46.768Z,12.63
2023-04-28T08:05:14.710Z,10.23
2023-04-28T08:07:42.393Z,11.70
2023-04-28T08:10:10.333Z,10.77
2023-04-28T08:12:37.902Z,11.85
2023-04-28T08:15:05.822Z,11.40
2023-04-28T08:17:34.467Z,10.80
2023-04-28T08:20:01.812Z,11.57
2023-04-28T08:22:29.117Z,13.10
2023-04-28T08:24:56.495Z,11.20
2023-04-28T08:27:25.531Z,11.45
2023-04-28T08:29:52.861Z,12.40
2023-04-28T08:32:20.210Z,10.82
2023-04-28T08:34:48.926Z,11.40
2023-04-28T08:37:16.344Z,12.25
2023-04-28T08:39:43.768Z,11.95
2023-04-28T08:42:11.215Z,13.13
2023-04-28T08:44:39.547Z,15.40
2023-04-28T08:47:10.647Z,15.35
2023-04-28T08:49:38.246Z,15.75
2023-04-28T08:52:10.719Z,14.63
2023-04-28T08:54:39.079Z,16.33
2023-04-28T08:57:09.059Z,18.00
2023-04-28T08:59:38.718Z,15.82
2023-04-28T09:02:06.115Z,14.18
2023-04-28T09:04:33.735Z,13.93
2023-04-28T09:07:01.156Z,13.57
2023-04-28T09:09:33.331Z,14.05
2023-04-28T09:12:02.858Z,14.25
2023-04-28T09:14:30.720Z,16.27
2023-04-28T09:16:58.343Z,19.25
2023-04-28T09:19:25.862Z,23.63
2023-04-28T09:21:54.153Z,23.27
2023-04-28T09:24:32.742Z,25.33
2023-04-28T09:27:00.216Z,26.33
2023-04-28T09:29:27.522Z,21.55
2023-04-28T09:31:55.146Z,19.48
2023-04-28T09:34:22.657Z,17.27
2023-04-28T09:36:50.521Z,17.17
2023-04-28T09:39:29.137Z,16.00
2023-04-28T09:41:58.946Z,14.82
2023-04-28T09:44:26.617Z,14.95
2023-04-28T09:46:53.885Z,16.35
2023-04-28T09:49:21.651Z,14.98
2023-04-28T09:51:50.170Z,16.52
2023-04-28T09:54:18.309Z,17.20
2023-04-28T09:56:48.162Z,17.27
2023-04-28T09:59:16.869Z,17.90
2023-04-28T10:01:44.874Z,20.67
2023-04-28T10:04:13.534Z,20.35
2023-04-28T10:06:41.058Z,18.33
2023-04-28T10:09:08.507Z,17.75
2023-04-28T10:11:35.928Z,16.02
2023-04-28T10:14:03.725Z,15.07
2023-04-28T10:16:33.026Z,14.52
2023-04-28T10:19:01.226Z,11.98
2023-04-28T10:21:29.848Z,11.77
2023-04-28T10:24:01.498Z,8.85
2023-04-28T10:26:48.907Z,10.23
2023-04-28T10:29:16.302Z,8.98
2023-04-28T10:32:15.584Z,7.57
2023-04-28T10:34:43.093Z,7.10
2023-04-28T10:37:10.932Z,7.30
2023-04-28T10:39:38.383Z,6.57
2023-04-28T10:42:06.051Z,6.72
2023-04-28T10:44:42.662Z,7.68
2023-04-28T10:47:11.456Z,6.15
2023-04-28T10:49:58.073Z,5.88
2023-04-28T10:52:44.186Z,5.70
2023-04-28T10:55:32.861Z,5.05
2023-04-28T10:58:18.882Z,5.15
2023-04-28T11:00:47.651Z,5.43
2023-04-28T11:03:30.035Z,4.72
2023-04-28T11:06:16.492Z,4.72
2023-04-28T11:08:45.148Z,4.20
2023-04-28T11:11:13.100Z,4.18
2023-04-28T11:13:42.376Z,4.22
2023-04-28T11:16:10.371Z,3.40
2023-04-28T11:18:46.143Z,3.60
2023-04-28T11:21:15.166Z,3.72
2023-04-28T11:23:42.626Z,4.25
2023-04-28T11:26:11.413Z,4.25
2023-04-28T11:28:47.531Z,4.53
2023-04-28T11:31:18.840Z,4.00
2023-04-28T11:33:47.180Z,4.05
2023-04-28T11:36:27.843Z,4.07
2023-04-28T11:38:56.030Z,4.47
2023-04-28T11:41:25.327Z,4.70
2023-04-28T11:43:52.647Z,4.00
2023-04-28T11:46:20.581Z,4.22
2023-04-28T11:48:48.567Z,3.53
2023-04-28T11:51:29.169Z,3.33
2023-04-28T11:53:56.501Z,3.20
2023-04-28T11:56:26.322Z,3.22
2023-04-28T11:59:04.121Z,2.80
2023-04-28T12:01:31.903Z,3.20
2023-04-28T12:03:59.395Z,2.40
2023-04-28T12:06:27.927Z,2.50
2023-04-28T12:08:55.248Z,2.72
2023-04-28T12:11:22.909Z,2.53
2023-04-28T12:14:06.547Z,2.53
2023-04-28T12:16:44.902Z,2.65
2023-04-28T12:19:12.780Z,2.45
2023-04-28T12:21:40.751Z,2.50
2023-04-28T12:24:15.034Z,2.30
2023-04-28T12:26:42.530Z,2.42
2023-04-28T12:29:11.173Z,2.33
2023-04-28T12:31:53.062Z,2.38
2023-04-28T12:34:20.533Z,2.45
2023-04-28T12:36:48.122Z,2.53
2023-04-28T12:39:18.903Z,2.03
2023-04-28T12:41:46.484Z,2.30
2023-04-28T12:44:15.863Z,2.50
2023-04-28T12:46:43.374Z,2.70
2023-04-28T12:49:10.702Z,2.30
2023-04-28T12:51:39.534Z,2.28
2023-04-28T12:54:06.929Z,2.42
2023-04-28T12:56:34.579Z,2.35
2023-04-28T12:59:02.416Z,2.35
2023-04-28T13:01:31.128Z,2.10
2023-04-28T13:03:58.647Z,2.05
2023-04-28T13:06:27.682Z,2.70
2023-04-28T13:08:55.084Z,2.17
2023-04-28T13:11:24.782Z,2.38
2023-04-28T13:13:52.753Z,2.25
2023-04-28T13:16:20.161Z,2.90
2023-04-28T13:18:49.907Z,2.70
2023-04-28T13:21:17.274Z,2.70
2023-04-28T13:23:44.606Z,3.10
2023-04-28T13:26:11.908Z,3.10
2023-04-28T13:28:39.254Z,3.05
2023-04-28T13:31:06.619Z,2.70
2023-04-28T13:33:33.892Z,2.65
2023-04-28T13:36:02.636Z,2.60
2023-04-28T13:38:29.936Z,2.58
2023-04-28T13:40:57.249Z,2.70
2023-04-28T13:43:24.856Z,2.90
2023-04-28T13:45:52.534Z,2.47
2023-04-28T13:48:19.930Z,2.60
2023-04-28T13:50:47.268Z,2.63
2023-04-28T13:53:17.104Z,2.40
2023-04-28T13:55:44.794Z,2.38
2023-04-28T13:58:12.105Z,1.95
2023-04-28T14:00:39.428Z,2.00
2023-04-28T14:03:07.662Z,1.60
2023-04-28T14:05:46.212Z,1.30
2023-04-28T14:08:20.131Z,1.25
2023-04-28T14:10:48.221Z,1.20
2023-04-28T14:13:15.554Z,1.02
2023-04-28T14:15:51.288Z,1.17
2023-04-28T14:18:24.878Z,1.10
2023-04-28T14:20:54.003Z,1.13
2023-04-28T14:23:22.963Z,1.20
2023-04-28T14:25:52.041Z,1.60
2023-04-28T14:28:21.593Z,1.25
2023-04-28T14:30:49.932Z,1.15
2023-04-28T14:33:17.467Z,1.00
2023-04-28T14:35:44.845Z,1.10
2023-04-28T14:38:13.549Z,1.60
2023-04-28T14:40:43.038Z,1.80
2023-04-28T14:43:10.438Z,1.45
2023-04-28T14:45:38.346Z,1.33
2023-04-28T14:48:06.749Z,1.25
2023-04-28T14:50:34.280Z,1.40
2023-04-28T14:53:05.574Z,1.45
2023-04-28T14:55:33.151Z,1.17
2023-04-28T14:58:02.852Z,1.17
2023-04-28T15:00:30.668Z,1.40
2023-04-28T15:02:58.239Z,1.30
2023-04-28T15:05:26.331Z,1.35
2023-04-28T15:07:53.778Z,2.15
2023-04-28T15:10:21.213Z,2.15
2023-04-28T15:12:49.096Z,1.90
2023-04-28T15:15:17.846Z,1.60
2023-04-28T15:17:45.925Z,2.00
2023-04-28T15:20:20.513Z,1.75
2023-04-28T15:22:47.825Z,1.77
2023-04-28T15:25:15.440Z,1.85
2023-04-28T15:27:42.850Z,2.25
2023-04-28T15:30:10.899Z,2.08
2023-04-28T15:32:39.688Z,2.72
2023-04-28T15:35:07.567Z,2.33
2023-04-28T15:37:40.595Z,2.60
2023-04-28T15:40:09.028Z,2.40
2023-04-28T15:42:36.952Z,2.33
2023-04-28T15:45:04.450Z,2.42
2023-04-28T15:47:33.145Z,2.60
2023-04-28T15:50:01.908Z,2.53
2023-04-28T15:52:29.228Z,2.90
2023-04-28T15:54:56.691Z,2.33
2023-04-28T15:57:24.048Z,2.22
2023-04-28T15:59:51.706Z,2.63
2023-04-28T16:02:19.349Z,2.80
2023-04-28T16:04:47.143Z,3.10
2023-04-28T16:07:15.844Z,3.10
2023-04-28T16:09:43.152Z,2.80
2023-04-28T16:12:13.607Z,3.00
2023-04-28T16:14:40.959Z,2.50
2023-04-28T16:17:08.414Z,2.40
2023-04-28T16:19:35.743Z,2.35
2023-04-28T16:22:03.037Z,2.28
2023-04-28T16:24:32.379Z,2.33
2023-04-28T16:26:59.765Z,2.22
2023-04-28T16:29:27.725Z,2.00
2023-04-28T16:31:55.033Z,2.15
2023-04-28T16:34:22.349Z,1.77
2023-04-28T16:36:50.181Z,1.58
2023-04-28T16:39:17.554Z,1.77
2023-04-28T16:41:46.227Z,1.50
2023-04-28T16:44:13.592Z,1.50
2023-04-28T16:46:41.258Z,1.63
2023-04-28T16:49:08.572Z,1.58
2023-04-28T16:51:35.946Z,1.45
2023-04-28T16:54:03.506Z,1.50
2023-04-28T16:56:30.934Z,1.58
2023-04-28T16:58:59.604Z,1.23
2023-04-28T17:01:27.259Z,1.38
2023-04-28T17:03:54.907Z,1.35
2023-04-28T17:06:22.288Z,1.35
2023-04-28T17:08:49.616Z,1.70
2023-04-28T17:11:17.498Z,1.20
2023-04-28T17:13:44.884Z,1.73
2023-04-28T17:16:13.551Z,1.50
2023-04-28T17:18:41.271Z,1.63
2023-04-28T17:21:08.835Z,1.33
2023-04-28T17:23:36.217Z,1.58
2023-04-28T17:26:04.569Z,1.58
2023-04-28T17:28:32.686Z,1.20
2023-04-28T17:31:03.362Z,1.65
2023-04-28T17:33:32.042Z,1.50
2023-04-28T17:35:59.341Z,1.20
2023-04-28T17:38:26.692Z,1.58
2023-04-28T17:40:56.999Z,1.50
2023-04-28T17:43:42.209Z,1.50
2023-04-28T17:48:41.672Z,1.30
2023-04-28T17:51:11.499Z,1.65
2023-04-28T17:53:39.147Z,1.90
2023-04-28T17:56:06.795Z,1.42
2023-04-28T17:58:34.134Z,2.03
2023-04-28T18:01:01.839Z,1.80
2023-04-28T18:03:29.436Z,1.70
2023-04-28T18:05:58.189Z,2.30
2023-04-28T18:08:25.576Z,1.90
2023-04-28T18:10:52.894Z,1.63
2023-04-28T18:13:20.209Z,2.00
2023-04-28T18:15:47.620Z,1.80
2023-04-28T18:18:15.062Z,1.90
2023-04-28T18:20:42.710Z,2.08
2023-04-28T18:23:11.420Z,1.83
2023-04-28T18:25:38.831Z,1.95
2023-04-28T18:28:07.899Z,2.20
2023-04-28T18:30:40.079Z,1.90
2023-04-28T18:33:08.340Z,2.03
2023-04-28T18:35:36.667Z,2.08
2023-04-28T18:38:04.987Z,2.00
2023-04-28T18:40:38.636Z,1.80
2023-04-28T18:43:06.391Z,2.22
2023-04-28T18:45:35.214Z,2.20
2023-04-28T18:48:03.012Z,2.25
2023-04-28T18:50:30.842Z,2.05
2023-04-28T18:52:58.225Z,2.10
2023-04-28T18:55:25.584Z,2.35
2023-04-28T18:57:54.253Z,2.38
2023-04-28T19:00:22.043Z,2.35
2023-04-28T19:02:49.520Z,2.90
2023-04-28T19:05:17.194Z,2.60
2023-04-28T19:07:44.604Z,2.67
2023-04-28T19:10:13.140Z,2.90
2023-04-28T19:12:40.939Z,2.85
2023-04-28T19:15:09.851Z,2.67
2023-04-28T19:17:37.195Z,3.25
2023-04-28T19:20:04.819Z,2.92
2023-04-28T19:22:32.970Z,3.33
2023-04-28T19:25:00.281Z,3.13
2023-04-28T19:27:30.378Z,3.20
2023-04-28T19:29:57.711Z,3.38
2023-04-28T19:32:26.365Z,2.95
2023-04-28T19:34:54.742Z,3.08
2023-04-28T19:37:22.145Z,3.80
2023-04-28T19:39:50.561Z,3.17
2023-04-28T19:42:18.076Z,3.00
2023-04-28T19:44:45.756Z,2.80
2023-04-28T19:47:13.199Z,3.10
2023-04-28T19:49:42.082Z,2.78
2023-04-28T19:52:10.325Z,2.63
2023-04-28T19:54:38.618Z,3.00
2023-04-28T19:57:05.965Z,2.60
2023-04-28T19:59:33.672Z,2.97
2023-04-28T20:02:01.178Z,2.55
2023-04-28T20:04:30.453Z,2.90
2023-04-28T20:06:59.320Z,2.55
2023-04-28T20:09:26.776Z,3.00
2023-04-28T20:11:54.732Z,3.10
2023-04-28T20:14:22.302Z,2.70
2023-04-28T20:16:49.717Z,2.97
2023-04-28T20:19:17.010Z,3.03
2023-04-28T20:21:44.415Z,3.38
2023-04-28T20:24:13.178Z,2.75
2023-04-28T20:26:40.625Z,3.40
2023-04-28T20:29:08.578Z,3.05
2023-04-28T20:31:36.154Z,3.10
2023-04-28T20:34:03.762Z,3.33
2023-04-28T20:36:33.505Z,3.17
2023-04-28T20:39:00.800Z,3.88
2023-04-28T20:41:29.454Z,4.13
2023-04-28T20:43:56.794Z,3.92
2023-04-28T20:46:24.145Z,4.28
2023-04-28T20:48:51.472Z,3.70
2023-04-28T20:51:18.795Z,3.78
2023-04-28T20:53:46.487Z,3.83
2023-04-28T20:56:13.767Z,3.75
2023-04-28T20:58:42.639Z,3.55
2023-04-28T21:01:10.600Z,3.78
2023-04-28T21:03:38.086Z,3.58
2023-04-28T21:06:05.540Z,4.05
2023-04-28T21:08:32.873Z,3.63
2023-04-28T21:11:00.381Z,3.33
2023-04-28T21:13:27.687Z,3.33
2023-04-28T21:15:56.668Z,3.50
2023-04-28T21:18:24.152Z,3.70
2023-04-28T21:20:51.825Z,3.83
2023-04-28T21:23:19.533Z,2.97
2023-04-28T21:25:46.819Z,3.03
2023-04-28T21:28:14.936Z,3.22
2023-04-28T21:30:42.325Z,3.80
2023-04-28T21:33:11.183Z,5.05
2023-04-28T21:35:38.579Z,4.90
2023-04-28T21:38:06.040Z,5.93
2023-04-28T21:40:33.377Z,6.20
2023-04-28T21:43:00.731Z,6.85
2023-04-28T21:45:28.040Z,6.93
2023-04-28T21:47:56.900Z,6.55
2023-04-28T21:50:25.578Z,6.80
2023-04-28T21:52:53.092Z,7.07
2023-04-28T21:55:20.383Z,7.22
2023-04-28T21:57:47.721Z,7.30
2023-04-28T22:00:16.546Z,7.55
2023-04-28T22:02:44.016Z,7.57
2023-04-28T22:05:11.564Z,6.93
2023-04-28T22:07:40.543Z,7.03
2023-04-28T22:10:08.660Z,7.57
2023-04-28T22:12:35.967Z,8.02
2023-04-28T22:15:03.261Z,7.68
2023-04-28T22:17:30.598Z,8.52
2023-04-28T22:19:57.910Z,8.57
2023-04-28T22:22:25.277Z,7.65
2023-04-28T22:24:53.950Z,7.88
2023-04-28T22:27:21.300Z,7.68
2023-04-28T22:29:48.829Z,7.38
2023-04-28T22:32:16.291Z,7.93
2023-04-28T22:34:43.623Z,8.38
2023-04-28T22:37:11.411Z,8.32
2023-04-28T22:39:38.687Z,8.20
2023-04-28T22:42:07.355Z,8.98
2023-04-28T22:44:34.666Z,10.55
2023-04-28T22:47:02.329Z,16.05
2023-04-28T22:49:30.417Z,14.95
2023-04-28T22:51:57.949Z,15.10
2023-04-28T22:54:25.291Z,16.42
2023-04-28T22:56:53.423Z,15.75
2023-04-28T22:59:22.273Z,17.00
2023-04-28T23:01:49.837Z,14.82
2023-04-28T23:04:17.717Z,16.15
2023-04-28T23:06:45.232Z,18.25
2023-04-28T23:09:12.514Z,17.65
2023-04-28T23:11:39.789Z,16.25
2023-04-28T23:14:07.154Z,16.83
2023-04-28T23:16:36.106Z,16.75
2023-04-28T23:19:03.545Z,15.27
2023-04-28T23:21:31.091Z,16.67
2023-04-28T23:23:58.407Z,16.58
2023-04-28T23:26:26.205Z,16.50
2023-04-28T23:28:53.525Z,17.67
2023-04-28T23:31:21.219Z,17.48
2023-04-28T23:33:49.948Z,18.23
2023-04-28T23:36:17.246Z,17.08
2023-04-28T23:38:44.551Z,16.15
2023-04-28T23:41:11.892Z,17.05
2023-04-28T23:43:39.208Z,16.60
2023-04-28T23:46:06.943Z,16.55
2023-04-28T23:48:34.720Z,15.93
2023-04-28T23:51:03.361Z,18.17
2023-04-28T23:53:30.678Z,17.73
2023-04-28T23:55:57.959Z,16.90
2023-04-28T23:58:25.251Z,19.25
